createdAt,value
2019-04-20T15:11:39.490Z,102670.62
2019-04-20T15:14:11.025Z,102658.78
2019-04-20T15:16:42.544Z,102657.72
2019-04-20T15:19:47.718Z,102657.47
2019-04-20T15:22:33.673Z,102658.30
2019-04-20T15:25:03.871Z,102655.45
2019-04-20T15:27:35.163Z,102647.69
2019-04-20T15:30:06.604Z,102646.23
2019-04-20T15:32:38.936Z,102644.42
2019-04-20T15:35:09.171Z,102644.91
2019-04-20T15:37:39.602Z,102641.38
2019-04-20T15:40:10.861Z,102641.88
2019-04-20T15:42:51.546Z,102638.37
2019-04-20T15:45:15.664Z,102635.17
2019-04-20T15:47:45.975Z,102626.23
2019-04-20T15:50:16.091Z,102629.56
2019-04-20T15:52:50.879Z,102620.93
2019-04-20T15:55:24.196Z,102618.23
2019-04-20T15:57:50.460Z,102620.84
2019-04-20T16:00:20.655Z,102622.22
2019-04-20T16:02:59.057Z,102614.33
2019-04-20T16:05:45.549Z,102618.31
2019-04-20T16:08:54.338Z,102615.69
2019-04-20T16:11:24.545Z,102613.78
2019-04-20T16:13:58.249Z,102617.34
2019-04-20T16:16:29.975Z,102614.34
2019-04-20T16:19:06.302Z,102611.28
2019-04-20T16:21:35.162Z,102607.91
2019-04-20T16:24:18.856Z,102606.17
2019-04-20T16:26:57.761Z,102608.23
2019-04-20T16:29:29.402Z,102601.95
2019-04-20T16:32:00.508Z,102601.33
2019-04-20T16:34:31.713Z,102597.92
2019-04-20T16:37:02.157Z,102597.77
2019-04-20T16:39:32.399Z,102594.08
2019-04-20T16:42:02.459Z,102587.71
2019-04-20T16:44:33.420Z,102595.02
2019-04-20T16:47:04.092Z,102588.16
2019-04-20T16:49:34.850Z,102585.84
2019-04-20T16:52:05.266Z,102584.66
2019-04-20T16:54:35.668Z,102588.15
2019-04-20T16:57:10.636Z,102591.22
2019-04-20T16:59:43.902Z,102591.56
2019-04-20T17:02:12.946Z,102581.00
2019-04-20T17:04:42.882Z,102582.46
2019-04-20T17:07:39.394Z,102575.14
2019-04-20T17:10:09.891Z,102577.17
2019-04-20T17:12:40.079Z,102583.75
2019-04-20T17:15:10.067Z,102574.47
2019-04-20T17:17:40.165Z,102575.56
2019-04-20T17:20:11.463Z,102581.32
2019-04-20T17:22:42.199Z,102577.05
2019-04-20T17:25:14.187Z,102574.86
2019-04-20T17:28:04.630Z,102574.66
2019-04-20T17:30:50.774Z,102565.16
2019-04-20T17:33:27.850Z,102564.77
2019-04-20T17:36:08.425Z,102556.16
2019-04-20T17:38:36.745Z,102564.83
2019-04-20T17:41:16.718Z,102569.62
2019-04-20T17:43:56.705Z,102570.42
2019-04-20T17:46:17.469Z,102569.94
2019-04-20T17:48:51.153Z,102568.05
2019-04-20T17:51:28.692Z,102569.05
2019-04-20T17:54:06.887Z,102571.88
2019-04-20T17:56:40.389Z,102569.09
2019-04-20T17:59:10.547Z,102565.44
2019-04-20T18:02:19.177Z,102565.02
2019-04-20T18:05:09.923Z,102568.02
2019-04-20T18:07:39.495Z,102566.09
2019-04-20T18:10:09.899Z,102571.05
2019-04-20T18:12:29.408Z,102569.88
2019-04-20T18:15:10.320Z,102566.38
2019-04-20T18:17:58.987Z,102558.08
2019-04-20T18:20:28.094Z,102568.81
2019-04-20T18:22:58.797Z,102560.43
2019-04-20T18:25:54.955Z,102555.98
2019-04-20T18:28:16.151Z,102564.31
2019-04-20T18:30:48.431Z,102563.58
2019-04-20T18:33:11.888Z,102559.62
2019-04-20T18:35:46.024Z,102562.45
2019-04-20T18:38:16.689Z,102558.47
2019-04-20T18:40:55.739Z,102563.66
2019-04-20T18:43:22.049Z,102557.31
2019-04-20T18:46:10.996Z,102563.14
2019-04-20T18:48:46.555Z,102560.58
2019-04-20T18:50:54.690Z,102557.80
2019-04-20T18:53:33.652Z,102565.11
2019-04-20T18:55:59.461Z,102563.66
2019-04-20T18:58:29.010Z,102562.34
2019-04-20T19:00:59.122Z,102560.69
2019-04-20T19:03:33.736Z,102565.30
2019-04-20T19:06:02.057Z,102567.53
2019-04-20T19:08:38.138Z,102563.19
2019-04-20T19:11:09.757Z,102568.09
2019-04-20T19:13:53.344Z,102569.27
2019-04-20T19:16:37.599Z,102567.09
2019-04-20T19:19:20.031Z,102571.80
2019-04-20T19:21:40.263Z,102580.04
2019-04-20T19:24:14.247Z,102575.43
2019-04-20T19:26:47.252Z,102577.73
2019-04-20T19:29:20.507Z,102578.17
2019-04-20T19:32:07.598Z,102579.11
2019-04-20T19:34:35.284Z,102573.56
2019-04-20T19:37:02.204Z,102585.19
2019-04-20T19:39:32.029Z,102581.05
2019-04-20T19:42:08.400Z,102574.44
2019-04-20T19:44:42.353Z,102579.25
2019-04-20T19:47:15.854Z,102576.36
2019-04-20T19:49:40.777Z,102574.19
2019-04-20T19:52:34.298Z,102583.31
2019-04-20T19:54:50.377Z,102582.14
2019-04-20T19:57:22.472Z,102594.72
2019-04-20T19:59:43.509Z,102587.52
2019-04-20T20:02:09.681Z,102591.31
2019-04-20T20:04:48.184Z,102595.64
2019-04-20T20:07:22.029Z,102590.25
2019-04-20T20:09:49.798Z,102596.07
2019-04-20T20:12:18.669Z,102591.14
2019-04-20T20:14:50.923Z,102592.30
2019-04-20T20:17:37.426Z,102590.80
2019-04-20T20:20:14.236Z,102584.39
2019-04-20T20:22:32.403Z,102585.44
2019-04-20T20:24:54.932Z,102582.61
2019-04-20T20:27:33.948Z,102589.05
2019-04-20T20:30:07.083Z,102592.55
2019-04-20T20:32:51.703Z,102590.38
2019-04-20T20:35:09.118Z,102584.50
2019-04-20T20:37:44.789Z,102582.94
2019-04-20T20:40:16.052Z,102577.45
2019-04-20T20:42:52.689Z,102573.36
2019-04-20T20:45:19.959Z,102579.14
2019-04-20T20:47:58.953Z,102582.28
2019-04-20T20:50:32.589Z,102580.19
2019-04-20T20:52:57.852Z,102570.27
2019-04-20T20:55:27.212Z,102569.61
2019-04-20T20:57:56.373Z,102568.77
2019-04-20T21:00:32.035Z,102571.72
2019-04-20T21:02:59.298Z,102580.47
2019-04-20T21:05:23.865Z,102571.47
2019-04-20T21:07:55.485Z,102574.20
2019-04-20T21:10:33.063Z,102572.23
2019-04-20T21:13:01.087Z,102572.28
2019-04-20T21:15:31.484Z,102563.95
2019-04-20T21:18:20.956Z,102562.51
2019-04-20T21:20:49.225Z,102563.72
2019-04-20T21:23:18.778Z,102561.57
2019-04-20T21:25:48.833Z,102556.55
2019-04-20T21:28:15.839Z,102560.47
2019-04-20T21:30:48.439Z,102562.17
2019-04-20T21:33:20.692Z,102559.55
2019-04-20T21:35:52.094Z,102554.23
2019-04-20T21:38:23.177Z,102559.79
2019-04-20T21:41:02.117Z,102555.83
2019-04-20T21:43:29.899Z,102554.80
2019-04-20T21:46:01.784Z,102559.09
2019-04-20T21:48:40.536Z,102556.45
2019-04-20T21:51:16.625Z,102557.05
2019-04-20T21:53:35.013Z,102558.33
2019-04-20T21:56:03.927Z,102556.02
2019-04-20T21:58:42.675Z,102555.38
2019-04-20T22:01:16.388Z,102551.71
2019-04-20T22:03:38.397Z,102548.92
2019-04-20T22:06:08.947Z,102546.70
2019-04-20T22:08:44.615Z,102548.89
2019-04-20T22:11:11.610Z,102539.81
2019-04-20T22:13:44.019Z,102529.29
2019-04-20T22:16:15.141Z,102523.64
2019-04-20T22:18:54.396Z,102530.44
2019-04-20T22:21:26.496Z,102528.86
2019-04-20T22:24:04.201Z,102532.91
2019-04-20T22:26:32.134Z,102529.00
2019-04-20T22:28:56.310Z,102531.89
2019-04-20T22:31:26.454Z,102528.70
2019-04-20T22:34:00.821Z,102522.30
2019-04-20T22:36:34.031Z,102512.88
2019-04-20T22:39:11.779Z,102517.20
2019-04-20T22:41:52.115Z,102515.76
2019-04-20T22:44:20.423Z,102515.76
2019-04-20T22:46:48.119Z,102513.23
2019-04-20T22:49:36.262Z,102508.00
2019-04-20T22:51:58.148Z,102509.70
2019-04-20T22:54:36.215Z,102502.91
2019-04-20T22:57:03.341Z,102503.78
2019-04-20T22:59:38.391Z,102503.41
2019-04-20T23:02:00.555Z,102506.81
2019-04-20T23:04:28.812Z,102503.05
2019-04-20T23:06:59.178Z,102498.80
2019-04-20T23:09:32.756Z,102505.70
2019-04-20T23:12:09.087Z,102506.08
2019-04-20T23:14:34.215Z,102502.27
2019-04-20T23:17:04.409Z,102503.27
2019-04-20T23:19:43.517Z,102503.27
2019-04-20T23:22:11.634Z,102505.59
2019-04-20T23:24:39.345Z,102504.00
2019-04-20T23:27:13.959Z,102500.01
2019-04-20T23:29:41.811Z,102497.34
2019-04-20T23:32:15.609Z,102493.72
2019-04-20T23:34:44.855Z,102481.56
2019-04-20T23:37:24.385Z,102481.56
2019-04-20T23:39:51.003Z,102484.96
2019-04-20T23:42:27.974Z,102476.71
2019-04-20T23:45:26.452Z,102477.16
2019-04-20T23:48:00.776Z,102472.79
2019-04-20T23:50:40.645Z,102466.49
2019-04-20T23:53:14.111Z,102465.97
2019-04-20T23:55:30.223Z,102466.33
2019-04-20T23:58:04.991Z,102469.22
